Egmondgracht — PDWG — position and weather

sailwx.info

Track history (hours):
 
Tides and Currents Weather Stations Pressure Air Temp Water Temp Dewpoint Dewpoint Depression Visibility Wind Speed Wind Dir Waves Ship Positions

Egmondgracht

Last reported at 2016-May-01 14:31 UTC. Time now 2016-May-01 15:30 UTC.
Position N 57°42' E 011°49'.

Length 136 m; beam 19 m; draft 9 m.

Type: Cargo ship. MMSI: 245716000.

Date/timePositionNaut miles runAvg speedWind from/ knotsBaromVisibWave heightAir tempDewpointWater temp
2016-May-01 14:31N 57°42' E 011°49'0 0.0
2016-May-01 13:31N 57°42' E 011°49'0 0.0
2016-May-01 12:31N 57°42' E 011°49'0 0.0
2016-May-01 11:34N 57°42' E 011°49'0 0.0
2016-May-01 10:33N 57°42' E 011°49'0 0.0
2016-May-01 09:33N 57°42' E 011°49'0 0.0
2016-May-01 08:33N 57°42' E 011°49'5 5.2
2016-May-01 07:34N 57°38' E 011°42'1110.6
2016-May-01 06:33N 57°41' E 011°23'1313.3
2016-May-01 05:33N 57°50' E 011°04'1313.1
2016-May-01 04:33N 57°56' E 010°42'1413.5
2016-May-01 03:33N 57°56' E 010°17'27214.3
2016-Apr-30 08:30N 54°20' E 005°21'1414.7
2016-Apr-30 07:33N 54°08' E 005°10'1514.7
2016-Apr-30 06:33N 53°54' E 005°01'1514.5
2016-Apr-30 05:32N 53°40' E 004°52'4213.8
2016-Apr-30 02:30N 53°02' E 004°23'2713.6
2016-Apr-30 00:33N 52°38' E 004°02'1413.7
2016-Apr-29 23:33N 52°26' E 003°54'1413.8
2016-Apr-29 22:33N 52°12' E 003°54'1110.6
2016-Apr-29 21:33N 52°01' E 003°58'1111.1
2016-Apr-29 20:33N 51°55' E 004°13'2 1.9
2016-Apr-29 19:32N 51°54' E 004°14'0 0.0
2016-Apr-29 18:32N 51°54' E 004°14'0 0.0
2016-Apr-29 17:32N 51°54' E 004°14'0 0.0
2016-Apr-29 16:32N 51°54' E 004°14'0 0.0
2016-Apr-29 15:32N 51°54' E 004°14'0 0.0
2016-Apr-29 14:32N 51°54' E 004°14'0 0.0
2016-Apr-29 13:32N 51°54' E 004°14'0 0.0
2016-Apr-29 12:32N 51°54' E 004°14'0 0.0
2016-Apr-29 11:32N 51°54' E 004°14'0 0.0
2016-Apr-29 10:32N 51°54' E 004°14'0 0.0
2016-Apr-29 09:32N 51°54' E 004°14'0 0.0
2016-Apr-29 08:32N 51°54' E 004°14'0 0.0
2016-Apr-29 07:32N 51°54' E 004°14'0 0.0
2016-Apr-29 06:32N 51°54' E 004°14'0 0.0
2016-Apr-29 05:32N 51°54' E 004°14'0 0.0
2016-Apr-29 04:32N 51°54' E 004°14'0 0.0
2016-Apr-29 03:32N 51°54' E 004°14'0 0.0
2016-Apr-29 02:32N 51°54' E 004°14'0 0.0
2016-Apr-29 01:32N 51°54' E 004°14'0 0.0
2016-Apr-29 00:29N 51°54' E 004°14'0 0.0
2016-Apr-28 23:32N 51°54' E 004°14'0 0.0
2016-Apr-28 22:32N 51°54' E 004°14'0 0.0
2016-Apr-28 21:32N 51°54' E 004°14'0 0.0
2016-Apr-28 20:32N 51°54' E 004°14'0 0.0
2016-Apr-28 19:33N 51°54' E 004°14'8 7.9
2016-Apr-28 18:34N 51°59' E 004°05'1313.2
2016-Apr-28 17:33N 51°59' E 003°43'22 7.5
2016-Apr-28 14:33N 51°44' E 003°15'10 9.6
2016-Apr-28 13:33N 51°36' E 003°23'1212.2
2016-Apr-28 12:33N 51°26' E 003°34'1212.0
2016-Apr-28 11:33N 51°21' E 003°51'1110.5
2016-Apr-28 10:33N 51°22' E 004°08'9 9.4
2016-Apr-28 09:33N 51°17' E 004°20'0 0.4
2016-Apr-28 08:33N 51°16' E 004°20'2 1.6
2016-Apr-28 07:32N 51°17' E 004°23'0 0.0
2016-Apr-28 06:32N 51°17' E 004°23'0 0.0
2016-Apr-28 05:32N 51°17' E 004°23'0 0.0
2016-Apr-28 04:29N 51°17' E 004°23'0 0.0
2016-Apr-28 03:32N 51°17' E 004°23'0 0.0
2016-Apr-28 02:29N 51°17' E 004°23'0 0.0
2016-Apr-28 01:32N 51°17' E 004°23'0 0.0
2016-Apr-28 00:32N 51°17' E 004°23'0 0.0
2016-Apr-27 23:32N 51°17' E 004°23'0 0.0
2016-Apr-27 22:32N 51°17' E 004°23'0 0.0
2016-Apr-27 21:32N 51°17' E 004°23'0 0.0
2016-Apr-27 20:32N 51°17' E 004°23'0 0.0
2016-Apr-27 19:32N 51°17' E 004°23'0 0.0
2016-Apr-27 18:32N 51°17' E 004°23'0 0.0
2016-Apr-27 17:32N 51°17' E 004°23'0 0.0
2016-Apr-27 16:32N 51°17' E 004°23'0 0.0
2016-Apr-27 15:32N 51°17' E 004°23'0 0.0
2016-Apr-27 14:32N 51°17' E 004°23'0 0.0
2016-Apr-27 13:31N 51°17' E 004°23'0 0.0
2016-Apr-27 12:28N 51°17' E 004°23'0 0.0
2016-Apr-27 11:31N 51°17' E 004°23'0 0.0
2016-Apr-27 10:31N 51°17' E 004°23'0 0.0
2016-Apr-27 09:31N 51°17' E 004°23'0 0.0
2016-Apr-27 08:31N 51°17' E 004°23'0 0.0
2016-Apr-27 07:31N 51°17' E 004°23'0 0.0
2016-Apr-27 06:31N 51°17' E 004°23'0 0.0
2016-Apr-27 05:28N 51°17' E 004°23'0 0.0
2016-Apr-27 04:31N 51°17' E 004°23'0 0.0
2016-Apr-27 03:31N 51°17' E 004°23'0 0.0
2016-Apr-27 02:31N 51°17' E 004°23'0 0.0
2016-Apr-27 01:31N 51°17' E 004°23'0 0.0
2016-Apr-27 00:25N 51°17' E 004°23'0 0.0
2016-Apr-26 23:31N 51°17' E 004°23'0 0.0
2016-Apr-26 22:31N 51°17' E 004°23'0 0.0
2016-Apr-26 21:31N 51°17' E 004°23'0 0.0
2016-Apr-26 20:31N 51°17' E 004°23'0 0.0
2016-Apr-26 19:31N 51°17' E 004°23'0 0.0
2016-Apr-26 18:31N 51°17' E 004°23'0 0.0
2016-Apr-26 17:31N 51°17' E 004°23'0 0.0
2016-Apr-26 16:31N 51°17' E 004°23'0 0.0
2016-Apr-26 15:31N 51°17' E 004°23'0 0.0
2016-Apr-26 14:31N 51°17' E 004°23'0 0.0
2016-Apr-26 13:31N 51°17' E 004°23'0 0.0
2016-Apr-26 12:31N 51°17' E 004°23'0 0.0
2016-Apr-26 11:31N 51°17' E 004°23'0 0.0
2016-Apr-26 10:31N 51°17' E 004°23'0 0.0
2016-Apr-26 09:31N 51°17' E 004°23'0 0.0
2016-Apr-26 08:31N 51°17' E 004°23'0 0.0
2016-Apr-26 07:31N 51°17' E 004°23'0 0.0
2016-Apr-26 06:25N 51°17' E 004°23'0 0.0
2016-Apr-26 05:31N 51°17' E 004°23'0 0.0
2016-Apr-26 04:31N 51°17' E 004°23'0 0.0
2016-Apr-26 03:31N 51°17' E 004°23'0 0.0
2016-Apr-26 02:34N 51°17' E 004°23'0 0.0
2016-Apr-26 01:33N 51°17' E 004°23'0 0.0
2016-Apr-26 00:33N 51°17' E 004°23'0 0.0
2016-Apr-25 23:33N 51°17' E 004°23'0 0.0
2016-Apr-25 22:33N 51°17' E 004°23'0 0.0
2016-Apr-25 21:33N 51°17' E 004°23'0 0.0
2016-Apr-25 20:30N 51°17' E 004°23'0 0.0
2016-Apr-25 19:33N 51°17' E 004°23'0 0.0
2016-Apr-25 18:33N 51°17' E 004°23'0 0.0
2016-Apr-25 17:33N 51°17' E 004°23'0 0.0
2016-Apr-25 16:33N 51°17' E 004°23'0 0.1
2016-Apr-25 15:33N 51°17' E 004°23'2 1.8
2016-Apr-25 14:33N 51°17' E 004°20'1 1.4
2016-Apr-25 13:34N 51°18' E 004°18'8 7.6
2016-Apr-25 12:33N 51°24' E 004°11'8 8.3
2016-Apr-25 11:34N 51°25' E 003°58'9 9.4
2016-Apr-25 10:33N 51°23' E 003°43'7 7.5
2016-Apr-25 09:34N 51°25' E 003°31'1110.6
2016-Apr-25 08:33N 51°24' E 003°14'9 9.3
2016-Apr-25 07:33N 51°23' E 002°59'1211.8
2016-Apr-25 06:33N 51°22' E 002°41'1111.5
2016-Apr-25 05:33N 51°20' E 002°23'1010.3
2016-Apr-25 04:33N 51°15' E 002°08'1111.0
2016-Apr-25 03:33N 51°10' E 001°52'1413.8
2016-Apr-25 02:33N 51°01' E 001°36'7313.8
2016-Apr-24 21:15N 50°18' E 000°03'1014.9
2016-Apr-24 20:33N 50°15' W 000°13'1514.5
2016-Apr-24 19:30N 50°12' W 000°36'18712.1
2016-Apr-24 04:05N 48°60' W 005°02'813.9
2016-Apr-24 03:32N 48°56' W 005°12'  
Track history (hours):
 
Tides and Currents Weather Stations Pressure Air Temp Water Temp Dewpoint Dewpoint Depression Visibility Wind Speed Wind Dir Waves Ship Positions

Egmondgracht

Last reported at 2016-May-01 14:31 UTC. Time now 2016-May-01 15:30 UTC.
Position N 57°42' E 011°49'.

Length 136 m; beam 19 m; draft 9 m.

Type: Cargo ship. MMSI: 245716000.

Date/timePositionNaut miles runAvg speedWind from/ knotsBaromVisibWave heightAir tempDewpointWater temp
2016-May-01 14:31N 57°42' E 011°49'0 0.0
2016-May-01 13:31N 57°42' E 011°49'0 0.0
2016-May-01 12:31N 57°42' E 011°49'0 0.0
2016-May-01 11:34N 57°42' E 011°49'0 0.0
2016-May-01 10:33N 57°42' E 011°49'0 0.0
2016-May-01 09:33N 57°42' E 011°49'0 0.0
2016-May-01 08:33N 57°42' E 011°49'5 5.2
2016-May-01 07:34N 57°38' E 011°42'1110.6
2016-May-01 06:33N 57°41' E 011°23'1313.3
2016-May-01 05:33N 57°50' E 011°04'1313.1
2016-May-01 04:33N 57°56' E 010°42'1413.5
2016-May-01 03:33N 57°56' E 010°17'27214.3
2016-Apr-30 08:30N 54°20' E 005°21'1414.7
2016-Apr-30 07:33N 54°08' E 005°10'1514.7
2016-Apr-30 06:33N 53°54' E 005°01'1514.5
2016-Apr-30 05:32N 53°40' E 004°52'4213.8
2016-Apr-30 02:30N 53°02' E 004°23'2713.6
2016-Apr-30 00:33N 52°38' E 004°02'1413.7
2016-Apr-29 23:33N 52°26' E 003°54'1413.8
2016-Apr-29 22:33N 52°12' E 003°54'1110.6
2016-Apr-29 21:33N 52°01' E 003°58'1111.1
2016-Apr-29 20:33N 51°55' E 004°13'2 1.9
2016-Apr-29 19:32N 51°54' E 004°14'0 0.0
2016-Apr-29 18:32N 51°54' E 004°14'0 0.0
2016-Apr-29 17:32N 51°54' E 004°14'0 0.0
2016-Apr-29 16:32N 51°54' E 004°14'0 0.0
2016-Apr-29 15:32N 51°54' E 004°14'0 0.0
2016-Apr-29 14:32N 51°54' E 004°14'0 0.0
2016-Apr-29 13:32N 51°54' E 004°14'0 0.0
2016-Apr-29 12:32N 51°54' E 004°14'0 0.0
2016-Apr-29 11:32N 51°54' E 004°14'0 0.0
2016-Apr-29 10:32N 51°54' E 004°14'0 0.0
2016-Apr-29 09:32N 51°54' E 004°14'0 0.0
2016-Apr-29 08:32N 51°54' E 004°14'0 0.0
2016-Apr-29 07:32N 51°54' E 004°14'0 0.0
2016-Apr-29 06:32N 51°54' E 004°14'0 0.0
2016-Apr-29 05:32N 51°54' E 004°14'0 0.0
2016-Apr-29 04:32N 51°54' E 004°14'0 0.0
2016-Apr-29 03:32N 51°54' E 004°14'0 0.0
2016-Apr-29 02:32N 51°54' E 004°14'0 0.0
2016-Apr-29 01:32N 51°54' E 004°14'0 0.0
2016-Apr-29 00:29N 51°54' E 004°14'0 0.0
2016-Apr-28 23:32N 51°54' E 004°14'0 0.0
2016-Apr-28 22:32N 51°54' E 004°14'0 0.0
2016-Apr-28 21:32N 51°54' E 004°14'0 0.0
2016-Apr-28 20:32N 51°54' E 004°14'0 0.0
2016-Apr-28 19:33N 51°54' E 004°14'8 7.9
2016-Apr-28 18:34N 51°59' E 004°05'1313.2
2016-Apr-28 17:33N 51°59' E 003°43'22 7.5
2016-Apr-28 14:33N 51°44' E 003°15'10 9.6
2016-Apr-28 13:33N 51°36' E 003°23'1212.2
2016-Apr-28 12:33N 51°26' E 003°34'1212.0
2016-Apr-28 11:33N 51°21' E 003°51'1110.5
2016-Apr-28 10:33N 51°22' E 004°08'9 9.4
2016-Apr-28 09:33N 51°17' E 004°20'0 0.4
2016-Apr-28 08:33N 51°16' E 004°20'2 1.6
2016-Apr-28 07:32N 51°17' E 004°23'0 0.0
2016-Apr-28 06:32N 51°17' E 004°23'0 0.0
2016-Apr-28 05:32N 51°17' E 004°23'0 0.0
2016-Apr-28 04:29N 51°17' E 004°23'0 0.0
2016-Apr-28 03:32N 51°17' E 004°23'0 0.0
2016-Apr-28 02:29N 51°17' E 004°23'0 0.0
2016-Apr-28 01:32N 51°17' E 004°23'0 0.0
2016-Apr-28 00:32N 51°17' E 004°23'0 0.0
2016-Apr-27 23:32N 51°17' E 004°23'0 0.0
2016-Apr-27 22:32N 51°17' E 004°23'0 0.0
2016-Apr-27 21:32N 51°17' E 004°23'0 0.0
2016-Apr-27 20:32N 51°17' E 004°23'0 0.0
2016-Apr-27 19:32N 51°17' E 004°23'0 0.0
2016-Apr-27 18:32N 51°17' E 004°23'0 0.0
2016-Apr-27 17:32N 51°17' E 004°23'0 0.0
2016-Apr-27 16:32N 51°17' E 004°23'0 0.0
2016-Apr-27 15:32N 51°17' E 004°23'0 0.0
2016-Apr-27 14:32N 51°17' E 004°23'0 0.0
2016-Apr-27 13:31N 51°17' E 004°23'0 0.0
2016-Apr-27 12:28N 51°17' E 004°23'0 0.0
2016-Apr-27 11:31N 51°17' E 004°23'0 0.0
2016-Apr-27 10:31N 51°17' E 004°23'0 0.0
2016-Apr-27 09:31N 51°17' E 004°23'0 0.0
2016-Apr-27 08:31N 51°17' E 004°23'0 0.0
2016-Apr-27 07:31N 51°17' E 004°23'0 0.0
2016-Apr-27 06:31N 51°17' E 004°23'0 0.0
2016-Apr-27 05:28N 51°17' E 004°23'0 0.0
2016-Apr-27 04:31N 51°17' E 004°23'0 0.0
2016-Apr-27 03:31N 51°17' E 004°23'0 0.0
2016-Apr-27 02:31N 51°17' E 004°23'0 0.0
2016-Apr-27 01:31N 51°17' E 004°23'0 0.0
2016-Apr-27 00:25N 51°17' E 004°23'0 0.0
2016-Apr-26 23:31N 51°17' E 004°23'0 0.0
2016-Apr-26 22:31N 51°17' E 004°23'0 0.0
2016-Apr-26 21:31N 51°17' E 004°23'0 0.0
2016-Apr-26 20:31N 51°17' E 004°23'0 0.0
2016-Apr-26 19:31N 51°17' E 004°23'0 0.0
2016-Apr-26 18:31N 51°17' E 004°23'0 0.0
2016-Apr-26 17:31N 51°17' E 004°23'0 0.0
2016-Apr-26 16:31N 51°17' E 004°23'0 0.0
2016-Apr-26 15:31N 51°17' E 004°23'0 0.0
2016-Apr-26 14:31N 51°17' E 004°23'0 0.0
2016-Apr-26 13:31N 51°17' E 004°23'0 0.0
2016-Apr-26 12:31N 51°17' E 004°23'0 0.0
2016-Apr-26 11:31N 51°17' E 004°23'0 0.0
2016-Apr-26 10:31N 51°17' E 004°23'0 0.0
2016-Apr-26 09:31N 51°17' E 004°23'0 0.0
2016-Apr-26 08:31N 51°17' E 004°23'0 0.0
2016-Apr-26 07:31N 51°17' E 004°23'0 0.0
2016-Apr-26 06:25N 51°17' E 004°23'0 0.0
2016-Apr-26 05:31N 51°17' E 004°23'0 0.0
2016-Apr-26 04:31N 51°17' E 004°23'0 0.0
2016-Apr-26 03:31N 51°17' E 004°23'0 0.0
2016-Apr-26 02:34N 51°17' E 004°23'0 0.0
2016-Apr-26 01:33N 51°17' E 004°23'0 0.0
2016-Apr-26 00:33N 51°17' E 004°23'0 0.0
2016-Apr-25 23:33N 51°17' E 004°23'0 0.0
2016-Apr-25 22:33N 51°17' E 004°23'0 0.0
2016-Apr-25 21:33N 51°17' E 004°23'0 0.0
2016-Apr-25 20:30N 51°17' E 004°23'0 0.0
2016-Apr-25 19:33N 51°17' E 004°23'0 0.0
2016-Apr-25 18:33N 51°17' E 004°23'0 0.0
2016-Apr-25 17:33N 51°17' E 004°23'0 0.0
2016-Apr-25 16:33N 51°17' E 004°23'0 0.1
2016-Apr-25 15:33N 51°17' E 004°23'2 1.8
2016-Apr-25 14:33N 51°17' E 004°20'1 1.4
2016-Apr-25 13:34N 51°18' E 004°18'8 7.6
2016-Apr-25 12:33N 51°24' E 004°11'8 8.3
2016-Apr-25 11:34N 51°25' E 003°58'9 9.4
2016-Apr-25 10:33N 51°23' E 003°43'7 7.5
2016-Apr-25 09:34N 51°25' E 003°31'1110.6
2016-Apr-25 08:33N 51°24' E 003°14'9 9.3
2016-Apr-25 07:33N 51°23' E 002°59'1211.8
2016-Apr-25 06:33N 51°22' E 002°41'1111.5
2016-Apr-25 05:33N 51°20' E 002°23'1010.3
2016-Apr-25 04:33N 51°15' E 002°08'1111.0
2016-Apr-25 03:33N 51°10' E 001°52'1413.8
2016-Apr-25 02:33N 51°01' E 001°36'7313.8
2016-Apr-24 21:15N 50°18' E 000°03'1014.9
2016-Apr-24 20:33N 50°15' W 000°13'1514.5
2016-Apr-24 19:30N 50°12' W 000°36'18712.1
2016-Apr-24 04:05N 48°60' W 005°02'813.9
2016-Apr-24 03:32N 48°56' W 005°12'  

Dump ship's entire track history